sensor_id;sensor_type;location;lat;lon;timestamp;P1;durP1;ratioP1;P2;durP2;ratioP2
5630;SDS011;2837;50.990;7.124;2023-10-19T05:01:36;151.27;;;9.23;;
5630;SDS011;2837;50.990;7.124;2023-10-19T05:04:02;153.27;;;10.90;;
5630;SDS011;2837;50.990;7.124;2023-10-19T05:06:28;151.57;;;10.07;;
5630;SDS011;2837;50.990;7.124;2023-10-19T05:08:54;151.10;;;10.10;;
5630;SDS011;2837;50.990;7.124;2023-10-19T05:11:22;151.57;;;10.37;;
5630;SDS011;2837;50.990;7.124;2023-10-19T05:13:48;151.17;;;9.50;;
5630;SDS011;2837;50.990;7.124;2023-10-19T05:16:14;151.87;;;10.23;;
5630;SDS011;2837;50.990;7.124;2023-10-19T05:18:40;151.60;;;10.80;;
5630;SDS011;2837;50.990;7.124;2023-10-19T05:21:06;151.17;;;9.77;;
5630;SDS011;2837;50.990;7.124;2023-10-19T05:23:32;152.17;;;10.23;;
5630;SDS011;2837;50.990;7.124;2023-10-19T05:26:01;152.07;;;11.43;;
5630;SDS011;2837;50.990;7.124;2023-10-19T05:28:28;151.60;;;10.27;;
5630;SDS011;2837;50.990;7.124;2023-10-19T05:30:54;152.60;;;11.60;;
5630;SDS011;2837;50.990;7.124;2023-10-19T05:33:20;151.33;;;10.60;;
5630;SDS011;2837;50.990;7.124;2023-10-19T05:35:48;151.60;;;10.60;;
5630;SDS011;2837;50.990;7.124;2023-10-19T05:38:14;152.80;;;11.60;;
5630;SDS011;2837;50.990;7.124;2023-10-19T05:40:40;152.40;;;11.10;;
5630;SDS011;2837;50.990;7.124;2023-10-19T05:43:08;153.70;;;12.33;;
5630;SDS011;2837;50.990;7.124;2023-10-19T05:45:34;155.10;;;9.70;;
5630;SDS011;2837;50.990;7.124;2023-10-19T05:48:01;152.40;;;10.33;;
5630;SDS011;2837;50.990;7.124;2023-10-19T05:50:34;151.83;;;10.70;;
5630;SDS011;2837;50.990;7.124;2023-10-19T05:53:00;151.17;;;10.00;;
5630;SDS011;2837;50.990;7.124;2023-10-19T05:55:27;150.67;;;10.63;;
5630;SDS011;2837;50.990;7.124;2023-10-19T05:57:54;152.13;;;10.80;;
5630;SDS011;2837;50.990;7.124;2023-10-19T06:00:20;153.30;;;11.20;;
5630;SDS011;2837;50.990;7.124;2023-10-19T06:02:47;152.07;;;11.40;;
5630;SDS011;2837;50.990;7.124;2023-10-19T06:05:16;152.57;;;11.67;;
5630;SDS011;2837;50.990;7.124;2023-10-19T06:07:43;151.60;;;10.30;;
5630;SDS011;2837;50.990;7.124;2023-10-19T06:10:13;151.90;;;11.00;;
5630;SDS011;2837;50.990;7.124;2023-10-19T06:12:48;151.40;;;9.93;;
5630;SDS011;2837;50.990;7.124;2023-10-19T06:15:15;153.80;;;11.30;;
5630;SDS011;2837;50.990;7.124;2023-10-19T06:17:42;151.87;;;11.10;;
5630;SDS011;2837;50.990;7.124;2023-10-19T06:20:09;151.97;;;9.80;;
5630;SDS011;2837;50.990;7.124;2023-10-19T06:22:54;155.40;;;11.13;;
5630;SDS011;2837;50.990;7.124;2023-10-19T06:25:29;158.40;;;10.87;;
5630;SDS011;2837;50.990;7.124;2023-10-19T06:27:55;153.97;;;11.67;;
5630;SDS011;2837;50.990;7.124;2023-10-19T06:30:24;152.80;;;10.33;;
5630;SDS011;2837;50.990;7.124;2023-10-19T06:32:52;151.93;;;10.47;;
5630;SDS011;2837;50.990;7.124;2023-10-19T06:35:20;155.07;;;10.70;;
5630;SDS011;2837;50.990;7.124;2023-10-19T06:37:46;151.40;;;10.40;;
5630;SDS011;2837;50.990;7.124;2023-10-19T06:40:13;164.70;;;11.57;;
5630;SDS011;2837;50.990;7.124;2023-10-19T06:42:46;153.63;;;12.20;;
5630;SDS011;2837;50.990;7.124;2023-10-19T06:45:12;153.70;;;12.37;;
5630;SDS011;2837;50.990;7.124;2023-10-19T06:47:45;154.90;;;13.60;;
5630;SDS011;2837;50.990;7.124;2023-10-19T06:50:12;153.30;;;11.47;;
5630;SDS011;2837;50.990;7.124;2023-10-19T06:52:40;157.10;;;12.73;;
5630;SDS011;2837;50.990;7.124;2023-10-19T06:55:11;154.80;;;12.70;;
5630;SDS011;2837;50.990;7.124;2023-10-19T06:57:51;153.67;;;11.70;;
5630;SDS011;2837;50.990;7.124;2023-10-19T07:00:19;155.60;;;11.77;;
5630;SDS011;2837;50.990;7.124;2023-10-19T07:02:51;152.77;;;12.40;;
5630;SDS011;2837;50.990;7.124;2023-10-19T07:05:18;153.27;;;12.37;;
5630;SDS011;2837;50.990;7.124;2023-10-19T07:07:54;154.50;;;12.87;;
5630;SDS011;2837;50.990;7.124;2023-10-19T07:10:21;153.93;;;13.10;;
5630;SDS011;2837;50.990;7.124;2023-10-19T07:12:48;153.83;;;12.80;;
5630;SDS011;2837;50.990;7.124;2023-10-19T07:15:16;153.93;;;12.53;;
5630;SDS011;2837;50.990;7.124;2023-10-19T07:17:47;154.73;;;12.30;;
5630;SDS011;2837;50.990;7.124;2023-10-19T07:20:14;155.57;;;12.93;;
5630;SDS011;2837;50.990;7.124;2023-10-19T07:23:00;155.40;;;12.70;;
5630;SDS011;2837;50.990;7.124;2023-10-19T07:25:43;155.50;;;13.90;;
5630;SDS011;2837;50.990;7.124;2023-10-19T07:28:19;154.87;;;12.80;;
5630;SDS011;2837;50.990;7.124;2023-10-19T07:30:46;154.70;;;12.30;;
5630;SDS011;2837;50.990;7.124;2023-10-19T07:33:12;153.70;;;13.40;;
5630;SDS011;2837;50.990;7.124;2023-10-19T07:35:45;155.40;;;12.87;;
5630;SDS011;2837;50.990;7.124;2023-10-19T07:38:12;162.20;;;13.80;;
5630;SDS011;2837;50.990;7.124;2023-10-19T07:40:39;153.37;;;12.80;;
5630;SDS011;2837;50.990;7.124;2023-10-19T07:43:05;153.17;;;11.80;;
5630;SDS011;2837;50.990;7.124;2023-10-19T07:45:31;154.37;;;12.60;;
5630;SDS011;2837;50.990;7.124;2023-10-19T07:47:59;153.30;;;12.50;;
5630;SDS011;2837;50.990;7.124;2023-10-19T07:50:31;155.67;;;12.70;;
5630;SDS011;2837;50.990;7.124;2023-10-19T07:52:58;156.90;;;11.83;;
5630;SDS011;2837;50.990;7.124;2023-10-19T07:55:24;153.67;;;11.63;;
5630;SDS011;2837;50.990;7.124;2023-10-19T07:57:50;154.77;;;12.97;;
5630;SDS011;2837;50.990;7.124;2023-10-19T08:00:16;153.13;;;11.60;;
5630;SDS011;2837;50.990;7.124;2023-10-19T08:02:43;154.03;;;12.33;;
5630;SDS011;2837;50.990;7.124;2023-10-19T08:05:13;152.23;;;10.63;;
5630;SDS011;2837;50.990;7.124;2023-10-19T08:07:39;155.07;;;11.83;;
5630;SDS011;2837;50.990;7.124;2023-10-19T08:10:07;153.43;;;11.37;;
5630;SDS011;2837;50.990;7.124;2023-10-19T08:12:36;153.50;;;11.43;;
5630;SDS011;2837;50.990;7.124;2023-10-19T08:15:02;161.33;;;12.00;;
5630;SDS011;2837;50.990;7.124;2023-10-19T08:17:29;152.73;;;11.30;;
5630;SDS011;2837;50.990;7.124;2023-10-19T08:19:55;155.70;;;11.47;;
5630;SDS011;2837;50.990;7.124;2023-10-19T08:22:22;152.57;;;10.97;;
5630;SDS011;2837;50.990;7.124;2023-10-19T08:24:48;152.83;;;10.83;;
5630;SDS011;2837;50.990;7.124;2023-10-19T08:27:17;153.67;;;10.60;;
5630;SDS011;2837;50.990;7.124;2023-10-19T08:29:43;152.13;;;10.33;;
5630;SDS011;2837;50.990;7.124;2023-10-19T08:32:09;154.20;;;10.50;;
5630;SDS011;2837;50.990;7.124;2023-10-19T08:34:35;153.37;;;10.47;;
5630;SDS011;2837;50.990;7.124;2023-10-19T08:37:02;152.60;;;10.17;;
5630;SDS011;2837;50.990;7.124;2023-10-19T08:39:29;153.07;;;9.73;;
5630;SDS011;2837;50.990;7.124;2023-10-19T08:42:01;152.47;;;10.53;;
5630;SDS011;2837;50.990;7.124;2023-10-19T08:44:27;152.50;;;10.70;;
5630;SDS011;2837;50.990;7.124;2023-10-19T08:46:55;152.90;;;10.57;;
5630;SDS011;2837;50.990;7.124;2023-10-19T08:49:22;151.73;;;9.50;;
5630;SDS011;2837;50.990;7.124;2023-10-19T08:51:48;158.03;;;10.60;;
5630;SDS011;2837;50.990;7.124;2023-10-19T08:54:14;155.80;;;10.00;;
5630;SDS011;2837;50.990;7.124;2023-10-19T08:56:42;153.97;;;10.47;;
5630;SDS011;2837;50.990;7.124;2023-10-19T08:59:08;152.83;;;10.50;;
5630;SDS011;2837;50.990;7.124;2023-10-19T09:01:37;151.07;;;9.10;;
5630;SDS011;2837;50.990;7.124;2023-10-19T09:04:03;150.47;;;9.33;;
5630;SDS011;2837;50.990;7.124;2023-10-19T09:06:36;155.67;;;9.40;;
5630;SDS011;2837;50.990;7.124;2023-10-19T09:09:12;152.77;;;10.07;;
5630;SDS011;2837;50.990;7.124;2023-10-19T09:11:45;153.97;;;9.27;;
5630;SDS011;2837;50.990;7.124;2023-10-19T09:14:12;150.87;;;9.83;;
5630;SDS011;2837;50.990;7.124;2023-10-19T09:16:38;150.93;;;9.20;;
5630;SDS011;2837;50.990;7.124;2023-10-19T09:19:20;154.27;;;10.70;;
5630;SDS011;2837;50.990;7.124;2023-10-19T09:21:46;151.70;;;9.93;;
5630;SDS011;2837;50.990;7.124;2023-10-19T09:24:13;151.97;;;9.67;;
5630;SDS011;2837;50.990;7.124;2023-10-19T09:26:40;152.73;;;9.13;;
5630;SDS011;2837;50.990;7.124;2023-10-19T09:29:06;151.67;;;9.97;;
5630;SDS011;2837;50.990;7.124;2023-10-19T09:31:33;152.90;;;10.17;;
5630;SDS011;2837;50.990;7.124;2023-10-19T09:34:00;155.57;;;10.00;;
5630;SDS011;2837;50.990;7.124;2023-10-19T09:36:28;151.40;;;9.30;;
5630;SDS011;2837;50.990;7.124;2023-10-19T09:38:54;154.77;;;9.97;;
5630;SDS011;2837;50.990;7.124;2023-10-19T09:41:22;152.43;;;10.00;;
5630;SDS011;2837;50.990;7.124;2023-10-19T09:43:57;152.30;;;9.17;;
5630;SDS011;2837;50.990;7.124;2023-10-19T09:46:29;154.07;;;10.23;;
5630;SDS011;2837;50.990;7.124;2023-10-19T09:48:57;152.93;;;9.33;;
5630;SDS011;2837;50.990;7.124;2023-10-19T09:51:23;154.10;;;9.77;;
5630;SDS011;2837;50.990;7.124;2023-10-19T09:53:52;152.87;;;10.47;;
5630;SDS011;2837;50.990;7.124;2023-10-19T09:56:40;155.43;;;8.87;;
5630;SDS011;2837;50.990;7.124;2023-10-19T09:59:13;151.23;;;9.43;;
5630;SDS011;2837;50.990;7.124;2023-10-19T10:02:09;151.07;;;9.13;;
5630;SDS011;2837;50.990;7.124;2023-10-19T10:04:40;157.80;;;9.87;;
5630;SDS011;2837;50.990;7.124;2023-10-19T10:07:08;154.70;;;9.80;;
5630;SDS011;2837;50.990;7.124;2023-10-19T10:09:35;153.07;;;10.13;;
5630;SDS011;2837;50.990;7.124;2023-10-19T10:12:19;151.23;;;9.40;;
5630;SDS011;2837;50.990;7.124;2023-10-19T10:14:59;154.67;;;10.07;;
5630;SDS011;2837;50.990;7.124;2023-10-19T10:17:28;151.27;;;10.07;;
5630;SDS011;2837;50.990;7.124;2023-10-19T10:22:38;154.00;;;9.33;;
5630;SDS011;2837;50.990;7.124;2023-10-19T10:25:06;152.40;;;10.00;;
5630;SDS011;2837;50.990;7.124;2023-10-19T10:27:35;151.50;;;9.57;;
5630;SDS011;2837;50.990;7.124;2023-10-19T10:30:02;153.47;;;9.77;;
5630;SDS011;2837;50.990;7.124;2023-10-19T10:32:51;150.87;;;9.90;;
5630;SDS011;2837;50.990;7.124;2023-10-19T10:38:07;150.57;;;9.70;;
5630;SDS011;2837;50.990;7.124;2023-10-19T10:40:46;152.67;;;10.30;;
5630;SDS011;2837;50.990;7.124;2023-10-19T10:43:13;150.47;;;9.73;;
5630;SDS011;2837;50.990;7.124;2023-10-19T10:45:40;150.50;;;10.40;;
5630;SDS011;2837;50.990;7.124;2023-10-19T10:48:13;152.60;;;10.33;;
5630;SDS011;2837;50.990;7.124;2023-10-19T10:50:39;154.47;;;10.37;;
5630;SDS011;2837;50.990;7.124;2023-10-19T10:53:07;152.90;;;11.00;;
5630;SDS011;2837;50.990;7.124;2023-10-19T10:55:33;150.57;;;10.23;;
5630;SDS011;2837;50.990;7.124;2023-10-19T10:57:59;156.03;;;11.07;;
5630;SDS011;2837;50.990;7.124;2023-10-19T11:00:25;152.50;;;11.20;;
5630;SDS011;2837;50.990;7.124;2023-10-19T11:03:00;149.70;;;9.90;;
5630;SDS011;2837;50.990;7.124;2023-10-19T11:05:29;151.37;;;10.00;;
5630;SDS011;2837;50.990;7.124;2023-10-19T11:10:40;149.73;;;9.83;;
5630;SDS011;2837;50.990;7.124;2023-10-19T11:13:08;152.70;;;11.10;;
5630;SDS011;2837;50.990;7.124;2023-10-19T11:15:36;150.37;;;9.80;;
5630;SDS011;2837;50.990;7.124;2023-10-19T11:18:02;155.40;;;11.10;;
5630;SDS011;2837;50.990;7.124;2023-10-19T11:20:28;152.50;;;10.67;;
5630;SDS011;2837;50.990;7.124;2023-10-19T11:22:55;155.63;;;11.17;;
5630;SDS011;2837;50.990;7.124;2023-10-19T11:25:26;150.93;;;10.47;;
5630;SDS011;2837;50.990;7.124;2023-10-19T11:27:56;151.07;;;10.37;;
5630;SDS011;2837;50.990;7.124;2023-10-19T11:30:26;150.17;;;10.90;;
5630;SDS011;2837;50.990;7.124;2023-10-19T11:32:53;151.00;;;10.97;;
5630;SDS011;2837;50.990;7.124;2023-10-19T11:35:22;153.77;;;11.00;;
5630;SDS011;2837;50.990;7.124;2023-10-19T11:37:51;151.87;;;10.47;;
5630;SDS011;2837;50.990;7.124;2023-10-19T11:40:18;151.47;;;10.23;;
5630;SDS011;2837;50.990;7.124;2023-10-19T11:42:45;151.50;;;10.70;;
5630;SDS011;2837;50.990;7.124;2023-10-19T11:45:12;150.50;;;10.30;;
5630;SDS011;2837;50.990;7.124;2023-10-19T11:47:38;150.37;;;10.67;;
5630;SDS011;2837;50.990;7.124;2023-10-19T11:50:04;157.47;;;10.93;;
5630;SDS011;2837;50.990;7.124;2023-10-19T11:52:31;155.50;;;11.13;;
5630;SDS011;2837;50.990;7.124;2023-10-19T11:54:56;150.70;;;10.10;;
5630;SDS011;2837;50.990;7.124;2023-10-19T11:57:23;150.37;;;10.30;;
5630;SDS011;2837;50.990;7.124;2023-10-19T11:59:50;150.43;;;10.33;;
5630;SDS011;2837;50.990;7.124;2023-10-19T12:02:19;152.67;;;10.87;;
5630;SDS011;2837;50.990;7.124;2023-10-19T12:04:45;152.50;;;9.50;;
5630;SDS011;2837;50.990;7.124;2023-10-19T12:07:11;150.13;;;10.23;;
5630;SDS011;2837;50.990;7.124;2023-10-19T12:09:37;151.13;;;10.60;;
5630;SDS011;2837;50.990;7.124;2023-10-19T12:12:06;152.47;;;10.97;;
5630;SDS011;2837;50.990;7.124;2023-10-19T12:14:34;150.27;;;10.67;;
5630;SDS011;2837;50.990;7.124;2023-10-19T12:17:00;150.57;;;9.33;;
5630;SDS011;2837;50.990;7.124;2023-10-19T12:19:27;153.47;;;10.90;;
5630;SDS011;2837;50.990;7.124;2023-10-19T12:21:56;148.80;;;9.60;;
5630;SDS011;2837;50.990;7.124;2023-10-19T12:24:22;151.77;;;10.90;;
5630;SDS011;2837;50.990;7.124;2023-10-19T12:26:49;155.07;;;10.50;;
5630;SDS011;2837;50.990;7.124;2023-10-19T12:29:16;153.17;;;11.50;;
5630;SDS011;2837;50.990;7.124;2023-10-19T12:31:45;151.93;;;10.90;;
5630;SDS011;2837;50.990;7.124;2023-10-19T12:34:11;159.40;;;10.30;;
5630;SDS011;2837;50.990;7.124;2023-10-19T12:36:37;152.50;;;11.37;;
5630;SDS011;2837;50.990;7.124;2023-10-19T12:39:04;150.37;;;10.83;;
5630;SDS011;2837;50.990;7.124;2023-10-19T12:41:30;151.87;;;10.27;;
5630;SDS011;2837;50.990;7.124;2023-10-19T12:43:57;152.00;;;9.50;;
5630;SDS011;2837;50.990;7.124;2023-10-19T12:46:23;153.70;;;10.30;;
5630;SDS011;2837;50.990;7.124;2023-10-19T12:48:50;152.80;;;10.60;;
5630;SDS011;2837;50.990;7.124;2023-10-19T12:51:16;150.97;;;10.17;;
5630;SDS011;2837;50.990;7.124;2023-10-19T12:53:49;154.87;;;11.00;;
5630;SDS011;2837;50.990;7.124;2023-10-19T12:56:18;152.07;;;10.83;;
5630;SDS011;2837;50.990;7.124;2023-10-19T12:58:44;153.07;;;10.20;;
5630;SDS011;2837;50.990;7.124;2023-10-19T13:01:11;154.77;;;10.40;;
5630;SDS011;2837;50.990;7.124;2023-10-19T13:03:44;150.07;;;9.53;;
5630;SDS011;2837;50.990;7.124;2023-10-19T13:06:11;153.37;;;11.23;;
5630;SDS011;2837;50.990;7.124;2023-10-19T13:08:37;156.00;;;11.43;;
5630;SDS011;2837;50.990;7.124;2023-10-19T13:11:05;158.40;;;11.43;;
5630;SDS011;2837;50.990;7.124;2023-10-19T13:13:31;152.77;;;11.30;;
5630;SDS011;2837;50.990;7.124;2023-10-19T13:15:57;149.97;;;10.10;;
5630;SDS011;2837;50.990;7.124;2023-10-19T13:18:25;153.93;;;11.17;;
5630;SDS011;2837;50.990;7.124;2023-10-19T13:20:55;153.80;;;11.30;;
5630;SDS011;2837;50.990;7.124;2023-10-19T13:23:22;155.10;;;11.30;;
5630;SDS011;2837;50.990;7.124;2023-10-19T13:25:48;150.43;;;10.20;;
5630;SDS011;2837;50.990;7.124;2023-10-19T13:28:17;152.50;;;10.40;;
5630;SDS011;2837;50.990;7.124;2023-10-19T13:30:47;154.17;;;11.50;;
5630;SDS011;2837;50.990;7.124;2023-10-19T13:33:14;152.53;;;11.17;;
5630;SDS011;2837;50.990;7.124;2023-10-19T13:35:40;152.23;;;10.60;;
5630;SDS011;2837;50.990;7.124;2023-10-19T13:38:07;154.10;;;11.13;;
5630;SDS011;2837;50.990;7.124;2023-10-19T13:40:37;153.17;;;10.80;;
5630;SDS011;2837;50.990;7.124;2023-10-19T13:43:06;151.80;;;10.60;;
5630;SDS011;2837;50.990;7.124;2023-10-19T13:45:33;150.70;;;10.40;;
5630;SDS011;2837;50.990;7.124;2023-10-19T13:48:01;150.83;;;10.63;;
5630;SDS011;2837;50.990;7.124;2023-10-19T13:50:27;151.13;;;10.60;;
5630;SDS011;2837;50.990;7.124;2023-10-19T13:52:54;152.30;;;10.23;;
5630;SDS011;2837;50.990;7.124;2023-10-19T13:55:22;157.07;;;11.50;;
5630;SDS011;2837;50.990;7.124;2023-10-19T13:57:48;164.77;;;10.90;;
5630;SDS011;2837;50.990;7.124;2023-10-19T14:00:15;151.17;;;11.47;;
5630;SDS011;2837;50.990;7.124;2023-10-19T14:02:45;153.03;;;10.40;;
5630;SDS011;2837;50.990;7.124;2023-10-19T14:05:14;153.63;;;10.00;;
5630;SDS011;2837;50.990;7.124;2023-10-19T14:07:40;158.40;;;10.60;;
5630;SDS011;2837;50.990;7.124;2023-10-19T14:10:06;154.00;;;12.10;;
5630;SDS011;2837;50.990;7.124;2023-10-19T14:12:33;152.27;;;10.53;;
5630;SDS011;2837;50.990;7.124;2023-10-19T14:14:59;152.73;;;10.83;;
5630;SDS011;2837;50.990;7.124;2023-10-19T14:17:25;153.10;;;10.37;;
5630;SDS011;2837;50.990;7.124;2023-10-19T14:19:51;152.47;;;10.93;;
5630;SDS011;2837;50.990;7.124;2023-10-19T14:22:18;152.20;;;11.03;;
5630;SDS011;2837;50.990;7.124;2023-10-19T14:24:44;160.37;;;13.03;;
5630;SDS011;2837;50.990;7.124;2023-10-19T14:27:10;152.90;;;10.53;;
5630;SDS011;2837;50.990;7.124;2023-10-19T14:29:36;151.07;;;10.63;;
5630;SDS011;2837;50.990;7.124;2023-10-19T14:32:01;151.43;;;10.87;;
5630;SDS011;2837;50.990;7.124;2023-10-19T14:34:28;162.23;;;10.77;;
5630;SDS011;2837;50.990;7.124;2023-10-19T14:36:54;158.90;;;11.03;;
5630;SDS011;2837;50.990;7.124;2023-10-19T14:39:20;152.73;;;10.53;;
5630;SDS011;2837;50.990;7.124;2023-10-19T14:41:46;150.23;;;10.03;;
5630;SDS011;2837;50.990;7.124;2023-10-19T14:44:12;152.37;;;11.30;;
5630;SDS011;2837;50.990;7.124;2023-10-19T14:46:39;152.10;;;10.47;;
5630;SDS011;2837;50.990;7.124;2023-10-19T14:49:05;153.67;;;10.80;;
5630;SDS011;2837;50.990;7.124;2023-10-19T14:51:31;154.97;;;11.33;;
5630;SDS011;2837;50.990;7.124;2023-10-19T14:53:57;152.07;;;11.20;;
5630;SDS011;2837;50.990;7.124;2023-10-19T14:56:23;157.53;;;12.40;;
5630;SDS011;2837;50.990;7.124;2023-10-19T14:58:49;151.70;;;10.97;;
5630;SDS011;2837;50.990;7.124;2023-10-19T15:01:25;152.17;;;10.70;;
5630;SDS011;2837;50.990;7.124;2023-10-19T15:03:51;153.67;;;10.80;;
5630;SDS011;2837;50.990;7.124;2023-10-19T15:06:17;153.00;;;10.77;;
5630;SDS011;2837;50.990;7.124;2023-10-19T15:08:43;154.13;;;10.40;;
5630;SDS011;2837;50.990;7.124;2023-10-19T15:11:10;151.67;;;10.10;;
5630;SDS011;2837;50.990;7.124;2023-10-19T15:13:36;151.10;;;10.97;;
5630;SDS011;2837;50.990;7.124;2023-10-19T15:16:08;156.53;;;11.37;;
5630;SDS011;2837;50.990;7.124;2023-10-19T15:18:34;155.67;;;11.10;;
5630;SDS011;2837;50.990;7.124;2023-10-19T15:21:10;151.40;;;10.87;;
5630;SDS011;2837;50.990;7.124;2023-10-19T15:23:39;152.53;;;10.47;;
5630;SDS011;2837;50.990;7.124;2023-10-19T15:26:08;156.63;;;11.10;;
5630;SDS011;2837;50.990;7.124;2023-10-19T15:28:33;151.60;;;10.67;;
5630;SDS011;2837;50.990;7.124;2023-10-19T15:30:59;154.33;;;11.60;;
5630;SDS011;2837;50.990;7.124;2023-10-19T15:33:26;150.37;;;10.67;;
5630;SDS011;2837;50.990;7.124;2023-10-19T15:35:52;151.97;;;11.00;;
5630;SDS011;2837;50.990;7.124;2023-10-19T15:38:19;153.57;;;10.63;;
5630;SDS011;2837;50.990;7.124;2023-10-19T15:40:46;151.47;;;10.63;;
5630;SDS011;2837;50.990;7.124;2023-10-19T15:43:11;153.10;;;11.13;;
5630;SDS011;2837;50.990;7.124;2023-10-19T15:45:37;150.27;;;9.90;;
5630;SDS011;2837;50.990;7.124;2023-10-19T15:48:04;151.60;;;10.67;;
5630;SDS011;2837;50.990;7.124;2023-10-19T15:50:31;152.40;;;11.70;;
5630;SDS011;2837;50.990;7.124;2023-10-19T15:52:59;150.97;;;10.50;;
5630;SDS011;2837;50.990;7.124;2023-10-19T15:55:27;153.27;;;11.40;;
5630;SDS011;2837;50.990;7.124;2023-10-19T15:57:53;152.67;;;10.83;;
5630;SDS011;2837;50.990;7.124;2023-10-19T16:00:21;151.90;;;10.33;;
5630;SDS011;2837;50.990;7.124;2023-10-19T16:02:47;151.50;;;10.57;;
5630;SDS011;2837;50.990;7.124;2023-10-19T16:05:14;151.17;;;10.77;;
5630;SDS011;2837;50.990;7.124;2023-10-19T16:07:41;153.10;;;11.23;;
5630;SDS011;2837;50.990;7.124;2023-10-19T16:10:07;150.60;;;10.87;;
5630;SDS011;2837;50.990;7.124;2023-10-19T16:12:34;158.37;;;10.87;;
5630;SDS011;2837;50.990;7.124;2023-10-19T16:15:00;151.10;;;10.37;;
5630;SDS011;2837;50.990;7.124;2023-10-19T16:17:26;151.37;;;10.63;;
5630;SDS011;2837;50.990;7.124;2023-10-19T16:19:52;152.43;;;9.87;;
5630;SDS011;2837;50.990;7.124;2023-10-19T16:22:18;153.37;;;10.00;;
5630;SDS011;2837;50.990;7.124;2023-10-19T16:24:45;154.87;;;11.90;;
5630;SDS011;2837;50.990;7.124;2023-10-19T16:27:10;152.73;;;10.63;;
5630;SDS011;2837;50.990;7.124;2023-10-19T16:29:36;154.17;;;12.53;;
5630;SDS011;2837;50.990;7.124;2023-10-19T16:32:04;156.10;;;13.10;;
5630;SDS011;2837;50.990;7.124;2023-10-19T16:34:29;157.53;;;11.57;;
5630;SDS011;2837;50.990;7.124;2023-10-19T16:36:55;152.73;;;10.47;;
5630;SDS011;2837;50.990;7.124;2023-10-19T16:39:22;159.60;;;10.67;;
5630;SDS011;2837;50.990;7.124;2023-10-19T16:41:47;153.67;;;10.93;;
5630;SDS011;2837;50.990;7.124;2023-10-19T16:44:17;154.80;;;12.30;;
5630;SDS011;2837;50.990;7.124;2023-10-19T16:46:44;155.10;;;12.17;;
5630;SDS011;2837;50.990;7.124;2023-10-19T16:49:09;155.47;;;12.13;;
5630;SDS011;2837;50.990;7.124;2023-10-19T16:51:35;152.47;;;11.00;;
5630;SDS011;2837;50.990;7.124;2023-10-19T16:54:05;150.97;;;10.00;;
5630;SDS011;2837;50.990;7.124;2023-10-19T16:56:31;152.30;;;10.63;;
5630;SDS011;2837;50.990;7.124;2023-10-19T16:58:57;155.73;;;11.63;;
5630;SDS011;2837;50.990;7.124;2023-10-19T17:01:24;152.87;;;10.00;;
5630;SDS011;2837;50.990;7.124;2023-10-19T17:03:52;151.83;;;11.03;;
5630;SDS011;2837;50.990;7.124;2023-10-19T17:06:18;152.47;;;10.80;;
5630;SDS011;2837;50.990;7.124;2023-10-19T17:08:45;153.57;;;11.17;;
5630;SDS011;2837;50.990;7.124;2023-10-19T17:11:11;152.10;;;10.10;;
5630;SDS011;2837;50.990;7.124;2023-10-19T17:13:37;152.70;;;10.80;;
5630;SDS011;2837;50.990;7.124;2023-10-19T17:16:04;152.90;;;10.87;;
5630;SDS011;2837;50.990;7.124;2023-10-19T17:18:31;154.30;;;11.73;;
5630;SDS011;2837;50.990;7.124;2023-10-19T17:20:57;154.37;;;11.53;;
5630;SDS011;2837;50.990;7.124;2023-10-19T17:23:23;153.10;;;11.93;;
5630;SDS011;2837;50.990;7.124;2023-10-19T17:25:49;153.70;;;11.03;;
5630;SDS011;2837;50.990;7.124;2023-10-19T17:28:16;152.87;;;10.90;;
5630;SDS011;2837;50.990;7.124;2023-10-19T17:30:42;153.83;;;12.13;;
5630;SDS011;2837;50.990;7.124;2023-10-19T17:33:09;153.17;;;10.93;;
5630;SDS011;2837;50.990;7.124;2023-10-19T17:35:35;154.80;;;11.50;;
5630;SDS011;2837;50.990;7.124;2023-10-19T17:38:03;152.67;;;10.33;;
5630;SDS011;2837;50.990;7.124;2023-10-19T17:40:29;153.27;;;10.83;;
5630;SDS011;2837;50.990;7.124;2023-10-19T17:42:55;153.50;;;11.33;;
5630;SDS011;2837;50.990;7.124;2023-10-19T17:45:21;152.70;;;10.23;;
5630;SDS011;2837;50.990;7.124;2023-10-19T17:47:47;153.70;;;11.47;;
5630;SDS011;2837;50.990;7.124;2023-10-19T17:50:15;153.73;;;11.73;;
5630;SDS011;2837;50.990;7.124;2023-10-19T17:52:44;152.50;;;10.23;;
5630;SDS011;2837;50.990;7.124;2023-10-19T17:55:12;153.40;;;10.37;;
5630;SDS011;2837;50.990;7.124;2023-10-19T17:57:42;153.80;;;10.10;;
5630;SDS011;2837;50.990;7.124;2023-10-19T18:00:08;154.97;;;11.13;;
5630;SDS011;2837;50.990;7.124;2023-10-19T18:02:36;154.10;;;10.90;;
5630;SDS011;2837;50.990;7.124;2023-10-19T18:05:02;155.47;;;10.43;;
5630;SDS011;2837;50.990;7.124;2023-10-19T18:07:28;154.07;;;10.43;;
5630;SDS011;2837;50.990;7.124;2023-10-19T18:09:55;154.27;;;9.90;;
5630;SDS011;2837;50.990;7.124;2023-10-19T18:12:21;154.47;;;11.03;;
5630;SDS011;2837;50.990;7.124;2023-10-19T18:14:48;154.27;;;11.30;;
5630;SDS011;2837;50.990;7.124;2023-10-19T18:17:14;153.93;;;10.63;;
5630;SDS011;2837;50.990;7.124;2023-10-19T18:19:40;154.03;;;10.30;;
5630;SDS011;2837;50.990;7.124;2023-10-19T18:22:07;154.77;;;10.63;;
5630;SDS011;2837;50.990;7.124;2023-10-19T18:24:33;156.77;;;10.07;;
5630;SDS011;2837;50.990;7.124;2023-10-19T18:26:59;156.10;;;10.70;;
5630;SDS011;2837;50.990;7.124;2023-10-19T18:29:26;153.47;;;11.03;;
5630;SDS011;2837;50.990;7.124;2023-10-19T18:31:52;153.90;;;11.10;;
5630;SDS011;2837;50.990;7.124;2023-10-19T18:34:19;159.30;;;11.50;;
5630;SDS011;2837;50.990;7.124;2023-10-19T18:36:46;156.80;;;11.77;;
5630;SDS011;2837;50.990;7.124;2023-10-19T18:39:12;156.00;;;10.20;;
5630;SDS011;2837;50.990;7.124;2023-10-19T18:41:43;155.37;;;10.67;;
5630;SDS011;2837;50.990;7.124;2023-10-19T18:44:09;153.87;;;10.97;;
5630;SDS011;2837;50.990;7.124;2023-10-19T18:46:35;156.47;;;12.10;;
5630;SDS011;2837;50.990;7.124;2023-10-19T18:49:02;157.50;;;11.53;;
5630;SDS011;2837;50.990;7.124;2023-10-19T18:51:27;156.37;;;12.10;;
5630;SDS011;2837;50.990;7.124;2023-10-19T18:53:54;154.73;;;11.37;;
5630;SDS011;2837;50.990;7.124;2023-10-19T18:56:21;155.70;;;12.53;;
5630;SDS011;2837;50.990;7.124;2023-10-19T18:58:47;155.27;;;11.70;;
5630;SDS011;2837;50.990;7.124;2023-10-19T19:01:14;156.83;;;11.53;;
5630;SDS011;2837;50.990;7.124;2023-10-19T19:03:40;155.27;;;11.87;;
5630;SDS011;2837;50.990;7.124;2023-10-19T19:06:06;154.50;;;12.17;;
5630;SDS011;2837;50.990;7.124;2023-10-19T19:08:38;157.97;;;12.60;;
5630;SDS011;2837;50.990;7.124;2023-10-19T19:11:09;155.53;;;11.53;;
5630;SDS011;2837;50.990;7.124;2023-10-19T19:13:36;154.67;;;11.67;;
5630;SDS011;2837;50.990;7.124;2023-10-19T19:16:02;157.67;;;13.37;;
5630;SDS011;2837;50.990;7.124;2023-10-19T19:18:28;156.80;;;12.63;;
5630;SDS011;2837;50.990;7.124;2023-10-19T19:20:54;155.77;;;12.80;;
5630;SDS011;2837;50.990;7.124;2023-10-19T19:23:20;158.17;;;12.47;;
5630;SDS011;2837;50.990;7.124;2023-10-19T19:25:46;155.90;;;10.73;;
5630;SDS011;2837;50.990;7.124;2023-10-19T19:28:14;155.60;;;12.63;;
5630;SDS011;2837;50.990;7.124;2023-10-19T19:30:41;155.37;;;12.30;;
5630;SDS011;2837;50.990;7.124;2023-10-19T19:33:08;159.70;;;13.23;;
5630;SDS011;2837;50.990;7.124;2023-10-19T19:35:34;156.80;;;12.20;;
5630;SDS011;2837;50.990;7.124;2023-10-19T19:38:00;166.10;;;12.23;;
5630;SDS011;2837;50.990;7.124;2023-10-19T19:40:27;162.47;;;12.50;;
5630;SDS011;2837;50.990;7.124;2023-10-19T19:42:55;156.67;;;12.60;;
5630;SDS011;2837;50.990;7.124;2023-10-19T19:45:24;156.33;;;12.83;;
5630;SDS011;2837;50.990;7.124;2023-10-19T19:47:51;155.47;;;12.80;;